createdAt,value
2019-05-02T00:01:29.065Z,68.78
2019-05-02T00:03:58.688Z,68.33
2019-05-02T00:06:28.503Z,68.83
2019-05-02T00:08:57.759Z,68.82
2019-05-02T00:11:27.982Z,68.91
2019-05-02T00:13:59.545Z,69.07
2019-05-02T00:16:29.468Z,68.86
2019-05-02T00:18:58.690Z,68.85
2019-05-02T00:21:27.965Z,68.75
2019-05-02T00:23:59.236Z,68.92
2019-05-02T00:26:28.545Z,68.75
2019-05-02T00:28:59.336Z,68.75
2019-05-02T00:31:30.049Z,68.91
2019-05-02T00:33:59.315Z,69.13
2019-05-02T00:36:28.558Z,69.08
2019-05-02T00:38:57.834Z,69.17
2019-05-02T00:41:27.113Z,69.25
2019-05-02T00:43:56.817Z,69.63
2019-05-02T00:46:30.346Z,69.49
2019-05-02T00:48:59.742Z,69.58
2019-05-02T00:51:30.125Z,69.54
2019-05-02T00:53:59.381Z,69.64
2019-05-02T00:56:28.616Z,69.67
2019-05-02T00:59:02.275Z,69.65
2019-05-02T01:02:05.363Z,69.52
2019-05-02T01:04:37.515Z,68.65
2019-05-02T01:07:07.630Z,69.38
2019-05-02T01:09:36.851Z,69.29
2019-05-02T01:12:08.316Z,69.33
2019-05-02T01:14:37.506Z,69.52
2019-05-02T01:17:07.114Z,69.67
2019-05-02T01:19:36.727Z,69.65
2019-05-02T01:22:10.440Z,69.86
2019-05-02T01:24:39.618Z,69.86
2019-05-02T01:27:17.857Z,69.78
2019-05-02T01:30:08.549Z,69.87
2019-05-02T01:33:01.411Z,69.85
2019-05-02T01:35:35.690Z,70.15
2019-05-02T01:38:26.535Z,70.25
2019-05-02T01:40:54.932Z,70.48
2019-05-02T01:43:26.109Z,70.60
2019-05-02T01:45:55.355Z,70.61
2019-05-02T01:48:25.111Z,70.51
2019-05-02T01:50:54.391Z,70.57
2019-05-02T01:53:23.626Z,70.55
2019-05-02T01:55:57.825Z,70.65
2019-05-02T01:58:24.519Z,70.79
2019-05-02T02:00:53.959Z,70.75
2019-05-02T02:03:23.247Z,70.64
2019-05-02T02:05:52.513Z,70.67
2019-05-02T02:08:22.033Z,70.95
2019-05-02T02:10:56.117Z,70.97
2019-05-02T02:13:22.726Z,70.87
2019-05-02T02:15:53.762Z,70.98
2019-05-02T02:18:27.489Z,70.93
2019-05-02T02:21:25.511Z,71.13
2019-05-02T02:24:05.918Z,71.11
2019-05-02T02:26:37.335Z,70.99
2019-05-02T02:29:07.791Z,70.85
2019-05-02T02:31:39.611Z,70.92
2019-05-02T02:34:08.578Z,70.94
2019-05-02T02:36:38.222Z,70.68
2019-05-02T02:39:14.541Z,70.68
2019-05-02T02:41:39.240Z,70.63
2019-05-02T02:44:14.893Z,70.66
2019-05-02T02:46:46.076Z,70.54
2019-05-02T02:49:21.783Z,70.45
2019-05-02T02:51:46.304Z,70.35
2019-05-02T02:54:18.320Z,70.33
2019-05-02T02:56:47.659Z,70.44
2019-05-02T02:59:19.559Z,70.20
2019-05-02T03:01:48.532Z,70.20
2019-05-02T03:04:18.219Z,70.39
2019-05-02T03:06:47.857Z,70.36
2019-05-02T03:09:20.337Z,70.48
2019-05-02T03:12:53.841Z,70.58
2019-05-02T03:15:28.126Z,70.58
2019-05-02T03:17:59.898Z,70.81
2019-05-02T03:20:26.825Z,70.88
2019-05-02T03:22:56.050Z,70.95
2019-05-02T03:25:49.249Z,70.93
2019-05-02T03:27:57.350Z,71.02
2019-05-02T03:30:36.253Z,70.99
2019-05-02T03:33:06.197Z,71.07
2019-05-02T03:35:41.137Z,71.32
2019-05-02T03:38:00.697Z,71.49
2019-05-02T03:40:32.215Z,71.54
2019-05-02T03:43:01.410Z,71.50
2019-05-02T03:45:32.067Z,71.52
2019-05-02T03:48:02.237Z,71.66
2019-05-02T03:50:32.901Z,71.75
2019-05-02T03:53:02.624Z,71.77
2019-05-02T03:55:33.992Z,71.96
2019-05-02T03:58:13.125Z,72.17
2019-05-02T04:00:36.213Z,72.29
2019-05-02T04:03:06.288Z,72.34
2019-05-02T04:05:40.349Z,72.18
2019-05-02T04:08:07.262Z,72.19
2019-05-02T04:11:20.783Z,71.83
2019-05-02T04:13:52.579Z,72.35
2019-05-02T04:16:22.470Z,72.56
2019-05-02T04:18:55.743Z,72.59
2019-05-02T04:21:25.965Z,72.58
2019-05-02T04:24:06.668Z,72.67
2019-05-02T04:26:26.087Z,72.55
2019-05-02T04:28:56.909Z,72.70
2019-05-02T04:31:31.805Z,72.88
2019-05-02T04:33:57.909Z,72.91
2019-05-02T04:36:27.246Z,72.90
2019-05-02T04:38:59.547Z,72.83
2019-05-02T04:41:30.449Z,72.92
2019-05-02T04:44:01.623Z,73.01
2019-05-02T04:46:31.416Z,73.09
2019-05-02T04:49:01.179Z,73.03
2019-05-02T04:51:31.970Z,73.05
2019-05-02T04:54:01.743Z,73.02
2019-05-02T04:56:31.090Z,73.09
2019-05-02T04:59:01.962Z,73.11
2019-05-02T05:01:42.084Z,73.15
2019-05-02T05:04:03.457Z,73.16
2019-05-02T05:06:33.065Z,73.11
2019-05-02T05:09:04.021Z,72.95
2019-05-02T05:11:33.387Z,72.95
2019-05-02T05:14:03.094Z,72.95
2019-05-02T05:16:32.325Z,72.58
2019-05-02T05:19:01.914Z,72.28
2019-05-02T05:21:31.156Z,72.46
2019-05-02T05:24:19.375Z,71.84
2019-05-02T05:26:52.010Z,71.43
2019-05-02T05:29:23.208Z,71.22
2019-05-02T05:31:55.119Z,71.02
2019-05-02T05:34:28.578Z,70.92
2019-05-02T05:36:54.951Z,71.04
2019-05-02T05:39:24.204Z,70.83
2019-05-02T05:41:53.801Z,70.99
2019-05-02T05:44:27.334Z,71.07
2019-05-02T05:46:54.066Z,70.88
2019-05-02T05:49:23.803Z,70.75
2019-05-02T05:51:54.271Z,70.37
2019-05-02T05:54:24.608Z,70.20
2019-05-02T05:56:54.221Z,70.03
2019-05-02T05:59:28.122Z,69.42
2019-05-02T06:01:55.161Z,69.33
2019-05-02T06:04:30.146Z,69.25
2019-05-02T06:06:59.582Z,69.77
2019-05-02T06:09:31.266Z,70.12
2019-05-02T06:11:57.804Z,70.42
2019-05-02T06:14:27.424Z,70.29
2019-05-02T06:16:56.904Z,70.09
2019-05-02T06:19:26.165Z,70.01
2019-05-02T06:21:55.394Z,69.53
2019-05-02T06:24:24.669Z,69.30
2019-05-02T06:26:54.294Z,69.29
2019-05-02T06:29:23.619Z,69.20
2019-05-02T06:31:53.217Z,68.83
2019-05-02T06:34:23.109Z,68.12
2019-05-02T06:36:52.537Z,67.40
2019-05-02T06:39:27.217Z,67.03
2019-05-02T06:41:57.508Z,66.71
2019-05-02T06:44:26.930Z,65.94
2019-05-02T06:46:59.269Z,65.92
2019-05-02T06:49:27.242Z,65.37
2019-05-02T06:51:57.804Z,63.98
2019-05-02T06:54:27.513Z,64.00
2019-05-02T06:56:57.311Z,64.04
2019-05-02T06:59:26.573Z,64.05
2019-05-02T07:01:58.666Z,64.65
2019-05-02T07:04:28.707Z,65.05
2019-05-02T07:06:59.746Z,65.56
2019-05-02T07:09:40.311Z,64.85
2019-05-02T07:12:01.907Z,65.07
2019-05-02T07:14:31.281Z,63.05
2019-05-02T07:17:20.106Z,63.23
2019-05-02T07:19:52.577Z,64.13
2019-05-02T07:22:22.905Z,64.60
2019-05-02T07:24:52.379Z,64.47
2019-05-02T07:27:21.635Z,64.94
2019-05-02T07:29:52.094Z,62.05
2019-05-02T07:32:24.884Z,60.25
2019-05-02T07:34:54.028Z,61.39
2019-05-02T07:37:23.275Z,60.40
2019-05-02T07:39:53.216Z,59.82
2019-05-02T07:42:22.851Z,60.23
2019-05-02T07:44:52.453Z,60.01
2019-05-02T07:47:21.741Z,58.65
2019-05-02T07:49:50.950Z,60.36
2019-05-02T07:52:20.202Z,59.16
2019-05-02T07:54:49.488Z,58.60
2019-05-02T07:57:18.782Z,59.25
2019-05-02T07:59:49.917Z,59.99
2019-05-02T08:02:20.282Z,58.83
2019-05-02T08:04:50.650Z,56.78
2019-05-02T08:07:21.298Z,56.34
2019-05-02T08:09:50.895Z,55.11
2019-05-02T08:12:20.613Z,56.12
2019-05-02T08:14:50.208Z,57.24
2019-05-02T08:17:19.557Z,57.23
2019-05-02T08:19:48.897Z,57.64
2019-05-02T08:22:18.428Z,57.27
2019-05-02T08:24:48.234Z,58.00
2019-05-02T08:27:39.248Z,59.51
2019-05-02T08:30:14.096Z,59.37
2019-05-02T08:32:43.343Z,58.46
2019-05-02T08:35:13.701Z,58.83
2019-05-02T08:37:44.787Z,58.49
2019-05-02T08:40:14.140Z,57.07
2019-05-02T08:42:43.487Z,56.93
2019-05-02T08:45:13.086Z,56.17
2019-05-02T08:47:44.195Z,55.50
2019-05-02T08:50:14.663Z,56.40
2019-05-02T08:52:44.247Z,56.26
2019-05-02T08:55:13.770Z,55.02
2019-05-02T08:57:43.049Z,54.93
2019-05-02T09:00:13.525Z,53.90
2019-05-02T09:02:43.282Z,54.48
2019-05-02T09:05:13.371Z,54.62
2019-05-02T09:07:43.806Z,55.46
2019-05-02T09:10:13.792Z,54.76
2019-05-02T09:12:45.391Z,53.69
2019-05-02T09:15:15.466Z,54.38
2019-05-02T09:17:52.702Z,53.31
2019-05-02T09:20:20.639Z,52.51
2019-05-02T09:22:54.108Z,53.31
2019-05-02T09:25:21.997Z,52.15
2019-05-02T09:27:52.678Z,53.19
2019-05-02T09:30:25.670Z,53.99
2019-05-02T09:32:57.173Z,53.14
2019-05-02T09:35:24.622Z,52.69
2019-05-02T09:37:53.900Z,51.12
2019-05-02T09:40:23.525Z,49.61
2019-05-02T09:42:57.633Z,49.32
2019-05-02T09:45:33.332Z,51.06
2019-05-02T09:48:06.911Z,50.79
2019-05-02T09:50:32.244Z,50.29
2019-05-02T09:53:02.022Z,51.03
2019-05-02T09:55:31.968Z,51.54
2019-05-02T09:58:02.689Z,50.96
2019-05-02T10:00:57.218Z,50.96
2019-05-02T10:03:26.709Z,51.08
2019-05-02T10:05:55.958Z,50.93
2019-05-02T10:08:25.206Z,51.21
2019-05-02T10:10:54.536Z,50.81
2019-05-02T10:13:23.830Z,50.58
2019-05-02T10:15:53.069Z,49.10
2019-05-02T10:18:28.331Z,51.39
2019-05-02T10:20:53.418Z,51.37
2019-05-02T10:23:23.615Z,52.30
2019-05-02T10:25:52.948Z,52.38
2019-05-02T10:28:22.981Z,51.43
2019-05-02T10:30:56.508Z,50.40
2019-05-02T10:33:23.358Z,49.66
2019-05-02T10:35:52.960Z,49.00
2019-05-02T10:38:22.986Z,48.81
2019-05-02T10:40:56.178Z,47.69
2019-05-02T10:43:23.280Z,49.25
2019-05-02T10:46:01.786Z,49.23
2019-05-02T10:48:33.208Z,50.63
2019-05-02T10:51:19.698Z,50.85
2019-05-02T10:53:54.745Z,51.29
2019-05-02T10:56:22.152Z,52.67
2019-05-02T10:58:52.377Z,53.18
2019-05-02T11:01:22.776Z,55.15
2019-05-02T11:03:52.991Z,56.58
2019-05-02T11:06:22.441Z,57.46
2019-05-02T11:08:52.632Z,57.58
2019-05-02T11:11:22.549Z,59.49
2019-05-02T11:14:16.811Z,59.76
2019-05-02T11:17:01.661Z,61.28
2019-05-02T11:19:54.206Z,61.83
2019-05-02T11:22:25.618Z,63.06
2019-05-02T11:24:54.901Z,63.38
2019-05-02T11:27:24.181Z,63.70
2019-05-02T11:29:53.413Z,64.16
2019-05-02T11:32:23.067Z,65.88
2019-05-02T11:34:52.606Z,67.20
2019-05-02T11:37:22.682Z,68.28
2019-05-02T11:39:59.054Z,69.34
2019-05-02T11:42:27.218Z,69.01
2019-05-02T11:44:56.839Z,69.49
2019-05-02T11:47:26.717Z,69.49
2019-05-02T11:49:56.147Z,68.96
2019-05-02T11:52:27.344Z,68.80
2019-05-02T11:54:56.790Z,67.85
2019-05-02T11:57:28.928Z,68.10
2019-05-02T11:59:59.499Z,67.61
2019-05-02T12:02:58.378Z,68.13
2019-05-02T12:05:35.926Z,68.04
2019-05-02T12:08:07.988Z,67.77
2019-05-02T12:10:37.405Z,68.26
2019-05-02T12:13:11.965Z,68.11
2019-05-02T12:15:41.583Z,68.18
2019-05-02T12:18:09.785Z,68.13
2019-05-02T12:20:39.036Z,66.95
2019-05-02T12:23:09.212Z,66.71
2019-05-02T12:25:38.566Z,66.37
2019-05-02T12:28:08.208Z,64.74
2019-05-02T12:30:37.899Z,65.15
2019-05-02T12:33:07.430Z,65.31
2019-05-02T12:35:37.005Z,65.40
2019-05-02T12:38:06.789Z,66.51
2019-05-02T12:40:37.859Z,68.50
2019-05-02T12:43:07.490Z,69.57
2019-05-02T12:45:37.263Z,70.60
2019-05-02T12:48:06.488Z,70.40
2019-05-02T12:50:35.757Z,71.24
2019-05-02T12:53:05.449Z,71.22
2019-05-02T12:55:36.233Z,70.96
2019-05-02T12:58:05.466Z,71.18
2019-05-02T13:00:34.862Z,71.60
2019-05-02T13:03:12.271Z,71.62
2019-05-02T13:05:42.636Z,71.46
2019-05-02T13:08:13.880Z,71.47
2019-05-02T13:11:02.016Z,71.46
2019-05-02T13:13:29.986Z,71.23
2019-05-02T13:16:01.634Z,70.44
2019-05-02T13:18:36.805Z,70.32
2019-05-02T13:21:08.076Z,69.32
2019-05-02T13:23:54.531Z,68.36
2019-05-02T13:26:27.134Z,68.04
2019-05-02T13:28:55.087Z,68.12
2019-05-02T13:31:33.400Z,67.26
2019-05-02T13:34:14.869Z,66.85
2019-05-02T13:36:45.994Z,64.76
2019-05-02T13:39:42.427Z,65.09
2019-05-02T13:42:12.641Z,65.30
2019-05-02T13:45:02.349Z,66.22
2019-05-02T13:47:32.541Z,65.95
2019-05-02T13:50:03.964Z,64.76
2019-05-02T13:52:33.297Z,64.85
2019-05-02T13:55:03.725Z,64.13
2019-05-02T13:57:36.468Z,63.79
2019-05-02T14:00:04.936Z,64.62
2019-05-02T14:02:38.985Z,64.77
2019-05-02T14:05:12.763Z,64.28
2019-05-02T14:07:48.221Z,63.07
2019-05-02T14:10:32.126Z,62.99
2019-05-02T14:13:03.209Z,64.10
2019-05-02T14:15:37.863Z,63.84
2019-05-02T14:18:07.413Z,62.93
2019-05-02T14:20:37.470Z,63.69
2019-05-02T14:23:07.572Z,63.51
2019-05-02T14:25:36.994Z,63.40
2019-05-02T14:28:06.554Z,63.52
2019-05-02T14:30:43.308Z,62.08
2019-05-02T14:33:15.157Z,60.47
2019-05-02T14:35:44.408Z,58.87
2019-05-02T14:38:14.633Z,58.33
2019-05-02T14:40:52.536Z,58.55
2019-05-02T14:43:44.594Z,59.22
2019-05-02T14:46:12.578Z,59.44
2019-05-02T14:48:45.209Z,57.62
2019-05-02T14:51:16.895Z,57.40
2019-05-02T14:53:45.714Z,56.63
2019-05-02T14:56:33.091Z,56.03
2019-05-02T14:59:02.722Z,56.15
2019-05-02T15:01:32.258Z,57.46
2019-05-02T15:04:04.065Z,58.66
2019-05-02T15:06:33.771Z,58.77
2019-05-02T15:09:03.703Z,59.52
2019-05-02T15:11:34.934Z,60.07
2019-05-02T15:14:04.270Z,61.05
2019-05-02T15:16:42.360Z,60.34
2019-05-02T15:19:04.600Z,59.74
2019-05-02T15:21:47.116Z,59.18
2019-05-02T15:24:14.114Z,58.70
2019-05-02T15:26:43.711Z,58.17
2019-05-02T15:29:19.685Z,56.93
2019-05-02T15:31:49.923Z,54.07
2019-05-02T15:34:25.539Z,54.81
2019-05-02T15:36:54.779Z,54.94
2019-05-02T15:41:54.979Z,54.25
2019-05-02T15:44:26.871Z,54.32
2019-05-02T15:46:58.337Z,53.13
2019-05-02T15:49:26.547Z,53.54
2019-05-02T15:51:55.811Z,54.07
2019-05-02T15:54:25.059Z,53.92
2019-05-02T15:57:05.442Z,52.35
2019-05-02T15:59:37.482Z,52.04
2019-05-02T16:02:13.082Z,51.90
2019-05-02T16:04:42.331Z,51.98
2019-05-02T16:07:12.239Z,51.24
2019-05-02T16:09:41.771Z,51.20
2019-05-02T16:12:13.023Z,51.33
2019-05-02T16:14:42.620Z,50.05
2019-05-02T16:17:12.583Z,49.93
2019-05-02T16:19:46.913Z,50.11
2019-05-02T16:22:17.687Z,50.17
2019-05-02T16:24:49.362Z,50.94
2019-05-02T16:27:23.721Z,50.88
2019-05-02T16:29:49.597Z,52.67
2019-05-02T16:32:35.807Z,54.32
2019-05-02T16:35:11.962Z,54.43
2019-05-02T16:37:36.813Z,55.13
2019-05-02T16:40:08.997Z,55.00
2019-05-02T16:42:38.451Z,55.33
2019-05-02T16:45:09.279Z,54.63
2019-05-02T16:47:38.607Z,54.72
2019-05-02T16:50:12.047Z,54.46
2019-05-02T16:52:43.609Z,54.76
2019-05-02T16:55:20.559Z,55.18
2019-05-02T16:57:44.196Z,55.41
2019-05-02T17:00:16.538Z,54.51
2019-05-02T17:02:46.518Z,54.61
2019-05-02T17:05:15.987Z,55.39
2019-05-02T17:08:10.740Z,54.61
2019-05-02T17:10:53.685Z,55.00
2019-05-02T17:13:22.372Z,55.02
2019-05-02T17:15:52.310Z,55.43
2019-05-02T17:18:22.834Z,56.36
2019-05-02T17:20:56.652Z,56.43
2019-05-02T17:23:23.893Z,56.26
2019-05-02T17:25:53.138Z,56.27
2019-05-02T17:28:22.497Z,55.23
2019-05-02T17:30:52.600Z,54.27
2019-05-02T17:33:21.897Z,54.10
2019-05-02T17:35:54.184Z,53.99
2019-05-02T17:38:25.046Z,54.08
2019-05-02T17:40:54.432Z,52.62
2019-05-02T17:43:24.686Z,51.92
2019-05-02T17:45:53.917Z,51.80
2019-05-02T17:48:23.550Z,51.81
2019-05-02T17:51:12.414Z,52.59
2019-05-02T17:53:49.287Z,52.99
2019-05-02T17:56:20.311Z,53.23
2019-05-02T17:58:47.289Z,54.25
2019-05-02T18:01:21.645Z,54.72
2019-05-02T18:03:52.029Z,54.49
2019-05-02T18:06:32.417Z,54.53
2019-05-02T18:08:55.301Z,54.76
2019-05-02T18:11:24.113Z,54.48
2019-05-02T18:13:53.399Z,54.12
2019-05-02T18:16:22.725Z,53.71
2019-05-02T18:18:52.288Z,53.47
2019-05-02T18:21:25.491Z,52.90
2019-05-02T18:23:57.271Z,52.60
2019-05-02T18:26:24.205Z,53.71
2019-05-02T18:28:57.231Z,54.05
2019-05-02T18:31:25.163Z,55.75
2019-05-02T18:33:54.380Z,56.54
2019-05-02T18:36:26.821Z,57.44
2019-05-02T18:39:00.566Z,58.03
2019-05-02T18:41:27.171Z,58.49
2019-05-02T18:43:56.395Z,58.82
2019-05-02T18:46:25.640Z,58.77
2019-05-02T18:48:55.222Z,59.09
2019-05-02T18:51:24.452Z,59.35
2019-05-02T18:53:58.038Z,59.78
2019-05-02T18:56:24.642Z,59.54
2019-05-02T18:58:54.195Z,60.13
2019-05-02T19:01:24.038Z,60.29
2019-05-02T19:03:56.166Z,60.34
2019-05-02T19:06:27.893Z,60.74
2019-05-02T19:08:57.899Z,60.82
2019-05-02T19:11:32.005Z,61.45
2019-05-02T19:13:58.107Z,62.34
2019-05-02T19:16:28.857Z,63.21
2019-05-02T19:18:58.562Z,63.72
2019-05-02T19:21:32.050Z,65.02
2019-05-02T19:24:02.125Z,66.46
2019-05-02T19:26:33.152Z,66.36
2019-05-02T19:29:17.172Z,67.29
2019-05-02T19:31:52.326Z,67.31
2019-05-02T19:34:25.068Z,67.89
2019-05-02T19:36:53.038Z,66.77
2019-05-02T19:39:24.211Z,67.14
2019-05-02T19:41:53.423Z,66.71
2019-05-02T19:44:28.893Z,66.20
2019-05-02T19:46:54.056Z,65.13
2019-05-02T19:49:25.403Z,65.11
2019-05-02T19:51:56.402Z,64.96
2019-05-02T19:54:25.719Z,64.69
2019-05-02T19:56:54.953Z,65.90
2019-05-02T19:59:26.289Z,67.71
2019-05-02T20:02:01.396Z,69.46
2019-05-02T20:04:27.816Z,70.32
2019-05-02T20:06:57.050Z,71.62
2019-05-02T20:09:26.602Z,72.09
2019-05-02T20:11:57.330Z,72.44
2019-05-02T20:14:26.625Z,72.72
2019-05-02T20:16:57.162Z,72.83
2019-05-02T20:19:27.193Z,73.03
2019-05-02T20:22:07.259Z,73.22
2019-05-02T20:25:00.185Z,73.33
2019-05-02T20:27:28.995Z,74.02
2019-05-02T20:29:58.219Z,73.85
2019-05-02T20:32:27.811Z,73.89
2019-05-02T20:34:57.042Z,74.07
2019-05-02T20:37:26.290Z,73.51
2019-05-02T20:39:55.803Z,73.22
2019-05-02T20:42:25.193Z,73.34
2019-05-02T20:44:54.424Z,73.39
2019-05-02T20:47:25.226Z,73.35
2019-05-02T20:49:55.058Z,72.96
2019-05-02T20:52:24.335Z,73.31
2019-05-02T20:54:53.868Z,73.42
2019-05-02T20:57:23.162Z,73.76
2019-05-02T20:59:52.691Z,74.08
2019-05-02T21:02:22.047Z,74.17
2019-05-02T21:04:52.064Z,74.23
2019-05-02T21:07:39.744Z,74.74
2019-05-02T21:10:37.175Z,74.62
2019-05-02T21:13:06.402Z,74.57
2019-05-02T21:15:36.002Z,74.39
2019-05-02T21:18:05.221Z,74.62
2019-05-02T21:20:34.465Z,75.00
2019-05-02T21:23:04.117Z,75.08
2019-05-02T21:25:33.335Z,75.45
2019-05-02T21:28:03.241Z,75.89
2019-05-02T21:30:34.489Z,75.95
2019-05-02T21:33:04.081Z,75.95
2019-05-02T21:35:33.791Z,76.21
2019-05-02T21:38:03.049Z,76.47
2019-05-02T21:40:32.737Z,76.50
2019-05-02T21:43:02.530Z,76.42
2019-05-02T21:45:32.175Z,76.06
2019-05-02T21:48:02.307Z,75.95
2019-05-02T21:50:55.710Z,76.01
2019-05-02T21:53:55.051Z,75.97
2019-05-02T21:56:37.718Z,76.14
2019-05-02T21:59:13.462Z,76.43
2019-05-02T22:01:51.893Z,76.61
2019-05-02T22:04:22.458Z,76.81
2019-05-02T22:06:52.416Z,76.79
2019-05-02T22:09:23.122Z,76.69
2019-05-02T22:11:52.577Z,76.75
2019-05-02T22:14:22.433Z,76.81
2019-05-02T22:16:52.993Z,77.08
2019-05-02T22:19:22.560Z,76.89
2019-05-02T22:21:52.493Z,77.02
2019-05-02T22:24:22.281Z,77.20
2019-05-02T22:26:52.637Z,77.28
2019-05-02T22:29:22.423Z,77.22
2019-05-02T22:31:52.167Z,76.98
2019-05-02T22:34:22.831Z,76.60
2019-05-02T22:36:54.341Z,76.36
2019-05-02T22:39:42.148Z,76.31
2019-05-02T22:42:12.817Z,75.86
2019-05-02T22:44:42.316Z,75.65
2019-05-02T22:47:14.070Z,75.30
2019-05-02T22:49:43.134Z,75.25
2019-05-02T22:52:14.317Z,74.83
2019-05-02T22:54:44.102Z,75.14
2019-05-02T22:57:14.226Z,74.55
2019-05-02T22:59:43.695Z,74.33
2019-05-02T23:02:13.617Z,73.81
2019-05-02T23:04:42.914Z,73.96
2019-05-02T23:07:12.638Z,73.64
2019-05-02T23:09:43.707Z,73.52
2019-05-02T23:12:13.372Z,73.41
2019-05-02T23:14:42.596Z,73.30
2019-05-02T23:17:12.786Z,73.16
2019-05-02T23:19:42.525Z,73.12
2019-05-02T23:22:12.916Z,72.98
2019-05-02T23:25:02.902Z,72.73
2019-05-02T23:27:42.368Z,72.46
2019-05-02T23:30:15.029Z,72.75
2019-05-02T23:32:44.306Z,72.79
2019-05-02T23:35:14.370Z,72.77
2019-05-02T23:37:44.039Z,72.79
2019-05-02T23:40:13.872Z,72.08
2019-05-02T23:42:43.125Z,72.21
2019-05-02T23:45:12.584Z,71.94
2019-05-02T23:47:42.313Z,71.93
2019-05-02T23:50:12.144Z,71.94
2019-05-02T23:52:41.866Z,72.04
2019-05-02T23:55:12.292Z,71.64
2019-05-02T23:57:42.193Z,71.34
